createdAt,value
2024-01-04T00:00:03.721Z,9.05
2024-01-04T00:02:35.665Z,9.11
2024-01-04T00:05:07.259Z,9.08
2024-01-04T00:07:37.187Z,9.15
2024-01-04T00:10:08.097Z,9.20
2024-01-04T00:12:37.817Z,9.23
2024-01-04T00:15:11.337Z,9.14
2024-01-04T00:17:41.114Z,9.06
2024-01-04T00:20:13.270Z,9.05
2024-01-04T00:22:43.136Z,9.12
2024-01-04T00:25:14.191Z,8.97
2024-01-04T00:27:43.779Z,8.95
2024-01-04T00:30:14.009Z,9.06
2024-01-04T00:32:46.647Z,9.09
2024-01-04T00:35:17.116Z,9.03
2024-01-04T00:37:47.119Z,9.07
2024-01-04T00:40:17.050Z,9.08
2024-01-04T00:42:46.712Z,9.13
2024-01-04T00:45:16.999Z,9.12
2024-01-04T00:47:46.755Z,9.18
2024-01-04T00:52:56.868Z,9.22
2024-01-04T00:55:33.274Z,9.19
2024-01-04T00:58:07.766Z,9.15
2024-01-04T01:00:37.331Z,9.16
2024-01-04T01:03:07.402Z,9.23
2024-01-04T01:05:37.194Z,9.23
2024-01-04T01:08:16.245Z,9.25
2024-01-04T01:10:47.098Z,9.21
2024-01-04T01:13:25.271Z,9.26
2024-01-04T01:15:54.954Z,9.29
2024-01-04T01:18:26.212Z,9.27
2024-01-04T01:21:00.195Z,9.24
2024-01-04T01:23:30.884Z,9.27
2024-01-04T01:26:00.972Z,9.33
2024-01-04T01:28:34.281Z,9.26
2024-01-04T01:31:05.543Z,9.24
2024-01-04T01:33:37.394Z,9.35
2024-01-04T01:36:11.877Z,9.32
2024-01-04T01:38:42.197Z,9.32
2024-01-04T01:41:11.823Z,9.31
2024-01-04T01:43:41.349Z,9.30
2024-01-04T01:46:10.945Z,9.32
2024-01-04T01:48:41.107Z,9.31
2024-01-04T01:51:13.207Z,9.33
2024-01-04T01:53:44.325Z,9.31
2024-01-04T01:56:14.248Z,9.37
2024-01-04T01:58:45.385Z,9.32
2024-01-04T02:01:16.184Z,9.37
2024-01-04T02:03:48.622Z,9.28
2024-01-04T02:06:18.710Z,9.25
2024-01-04T02:08:52.327Z,9.18
2024-01-04T02:11:24.331Z,9.13
2024-01-04T02:13:53.881Z,9.08
2024-01-04T02:16:23.687Z,9.07
2024-01-04T02:18:53.638Z,9.13
2024-01-04T02:21:23.898Z,9.14
2024-01-04T02:23:54.261Z,9.12
2024-01-04T02:26:23.858Z,9.15
2024-01-04T02:28:53.478Z,9.12
2024-01-04T02:31:22.945Z,9.21
2024-01-04T02:33:52.562Z,9.13
2024-01-04T02:36:22.179Z,9.18
2024-01-04T02:38:52.249Z,9.12
2024-01-04T02:41:21.971Z,9.13
2024-01-04T02:43:52.324Z,9.03
2024-01-04T02:46:22.096Z,9.01
2024-01-04T02:48:52.283Z,8.98
2024-01-04T02:51:21.963Z,9.09
2024-01-04T02:53:51.556Z,9.00
2024-01-04T02:56:21.619Z,8.99
2024-01-04T02:58:51.412Z,8.99
2024-01-04T03:01:27.703Z,8.91
2024-01-04T03:03:59.394Z,8.87
2024-01-04T03:06:33.415Z,8.90
2024-01-04T03:09:03.160Z,8.92
2024-01-04T03:11:34.027Z,8.99
2024-01-04T03:14:03.535Z,9.04
2024-01-04T03:16:35.568Z,9.13
2024-01-04T03:19:06.138Z,9.12
2024-01-04T03:21:35.908Z,9.06
2024-01-04T03:24:05.658Z,9.04
2024-01-04T03:26:36.147Z,8.99
2024-01-04T03:29:06.095Z,9.00
2024-01-04T03:31:36.220Z,8.87
2024-01-04T03:34:08.373Z,8.90
2024-01-04T03:36:38.189Z,8.98
2024-01-04T03:39:08.699Z,8.93
2024-01-04T03:41:38.340Z,8.99
2024-01-04T03:44:08.670Z,8.95
2024-01-04T03:46:38.283Z,8.90
2024-01-04T03:49:08.571Z,8.85
2024-01-04T03:51:38.088Z,8.91
2024-01-04T03:54:07.734Z,8.80
2024-01-04T03:56:37.362Z,8.77
2024-01-04T03:59:06.960Z,8.70
2024-01-04T04:01:44.906Z,8.76
2024-01-04T04:04:15.846Z,8.64
2024-01-04T04:06:45.820Z,8.57
2024-01-04T04:09:16.229Z,8.66
2024-01-04T04:11:46.967Z,8.64
2024-01-04T04:14:17.015Z,8.53
2024-01-04T04:16:46.588Z,8.46
2024-01-04T04:19:17.635Z,8.40
2024-01-04T04:21:47.415Z,8.43
2024-01-04T04:24:17.311Z,8.44
2024-01-04T04:26:46.945Z,8.37
2024-01-04T04:29:16.508Z,8.44
2024-01-04T04:31:46.170Z,8.47
2024-01-04T04:36:49.981Z,8.44
2024-01-04T04:39:19.647Z,8.45
2024-01-04T04:41:49.358Z,8.54
2024-01-04T04:44:19.048Z,8.63
2024-01-04T04:46:49.325Z,8.55
2024-01-04T04:49:19.003Z,8.55
2024-01-04T04:51:52.609Z,8.53
2024-01-04T04:54:23.197Z,8.49
2024-01-04T04:56:52.930Z,8.44
2024-01-04T04:59:22.516Z,8.35
2024-01-04T05:01:52.401Z,8.41
2024-01-04T05:04:22.791Z,8.45
2024-01-04T05:06:53.920Z,8.54
2024-01-04T05:09:24.318Z,8.46
2024-01-04T05:11:53.946Z,8.36
2024-01-04T05:14:23.737Z,8.32
2024-01-04T05:16:54.047Z,8.29
2024-01-04T05:19:23.796Z,8.25
2024-01-04T05:21:54.374Z,8.24
2024-01-04T05:24:23.958Z,8.24
2024-01-04T05:26:53.582Z,8.14
2024-01-04T05:29:23.055Z,8.14
2024-01-04T05:31:52.721Z,8.19
2024-01-04T05:34:22.525Z,8.15
2024-01-04T05:36:52.519Z,8.29
2024-01-04T05:39:22.128Z,8.18
2024-01-04T05:41:51.712Z,8.15
2024-01-04T05:44:21.497Z,8.05
2024-01-04T05:46:52.673Z,8.04
2024-01-04T05:49:23.071Z,8.10
2024-01-04T05:51:52.846Z,8.09
2024-01-04T05:54:22.451Z,8.06
2024-01-04T05:56:52.467Z,8.06
2024-01-04T05:59:26.908Z,8.11
2024-01-04T06:01:57.410Z,8.10
2024-01-04T06:04:27.588Z,8.09
2024-01-04T06:06:57.055Z,8.11
2024-01-04T06:09:26.868Z,8.09
2024-01-04T06:11:57.595Z,8.19
2024-01-04T06:14:27.557Z,8.16
2024-01-04T06:16:57.648Z,8.09
2024-01-04T06:19:32.103Z,8.06
2024-01-04T06:22:02.057Z,8.12
2024-01-04T06:24:32.007Z,8.11
2024-01-04T06:27:01.800Z,8.06
2024-01-04T06:29:34.324Z,8.01
2024-01-04T06:32:03.861Z,8.16
2024-01-04T06:34:35.169Z,8.08
2024-01-04T06:37:06.406Z,8.12
2024-01-04T06:39:35.981Z,8.12
2024-01-04T06:42:08.716Z,8.08
2024-01-04T06:44:44.409Z,8.11
2024-01-04T06:47:17.959Z,8.11
2024-01-04T06:49:47.729Z,8.08
2024-01-04T06:52:17.860Z,8.15
2024-01-04T06:54:47.412Z,8.23
2024-01-04T06:57:17.470Z,8.27
2024-01-04T06:59:48.013Z,8.25
2024-01-04T07:02:18.603Z,8.20
2024-01-04T07:04:48.287Z,8.24
2024-01-04T07:07:18.002Z,8.19
2024-01-04T07:09:47.910Z,8.23
2024-01-04T07:12:17.564Z,8.26
2024-01-04T07:14:47.089Z,8.26
2024-01-04T07:17:19.514Z,8.28
2024-01-04T07:19:49.672Z,8.31
2024-01-04T07:22:20.721Z,8.34
2024-01-04T07:24:50.589Z,8.38
2024-01-04T07:27:20.308Z,8.47
2024-01-04T07:29:50.228Z,8.53
2024-01-04T07:32:22.083Z,8.55
2024-01-04T07:35:00.634Z,8.56
2024-01-04T07:37:37.604Z,8.55
2024-01-04T07:40:08.424Z,8.53
2024-01-04T07:42:38.076Z,8.56
2024-01-04T07:45:08.609Z,8.59
2024-01-04T07:47:42.479Z,8.74
2024-01-04T07:50:14.454Z,8.81
2024-01-04T07:52:44.395Z,8.76
2024-01-04T07:55:14.091Z,8.90
2024-01-04T07:57:44.330Z,8.91
2024-01-04T08:00:17.284Z,8.83
2024-01-04T08:02:47.085Z,8.82
2024-01-04T08:05:17.609Z,8.86
2024-01-04T08:07:47.327Z,8.80
2024-01-04T08:10:18.011Z,8.69
2024-01-04T08:12:49.901Z,8.66
2024-01-04T08:15:19.628Z,8.62
2024-01-04T08:17:49.397Z,8.54
2024-01-04T08:20:23.013Z,8.52
2024-01-04T08:22:52.501Z,8.52
2024-01-04T08:25:22.504Z,8.49
2024-01-04T08:27:52.643Z,8.49
2024-01-04T08:30:22.805Z,8.50
2024-01-04T08:32:52.592Z,8.59
2024-01-04T08:35:22.440Z,8.62
2024-01-04T08:37:53.399Z,8.61
2024-01-04T08:40:23.273Z,8.67
2024-01-04T08:42:52.750Z,8.67
2024-01-04T08:45:22.594Z,8.66
2024-01-04T08:47:52.824Z,8.62
2024-01-04T08:50:23.938Z,8.70
2024-01-04T08:52:55.007Z,8.68
2024-01-04T08:55:25.088Z,8.68
2024-01-04T08:57:54.956Z,8.68
2024-01-04T09:00:24.828Z,8.66
2024-01-04T09:02:54.582Z,8.73
2024-01-04T09:05:24.904Z,8.81
2024-01-04T09:07:57.034Z,8.82
2024-01-04T09:10:28.216Z,8.83
2024-01-04T09:12:57.672Z,8.90
2024-01-04T09:15:29.481Z,8.87
2024-01-04T09:17:59.632Z,8.92
2024-01-04T09:20:30.071Z,8.87
2024-01-04T09:22:59.590Z,8.90
2024-01-04T09:25:30.691Z,8.82
2024-01-04T09:28:11.260Z,8.82
2024-01-04T09:30:59.597Z,8.88
2024-01-04T09:33:37.017Z,8.84
2024-01-04T09:36:09.863Z,8.84
2024-01-04T09:38:41.770Z,8.78
2024-01-04T09:41:33.175Z,8.81
2024-01-04T09:44:09.798Z,8.79
2024-01-04T09:46:43.617Z,8.84
2024-01-04T09:49:16.290Z,8.85
2024-01-04T09:51:46.381Z,8.93
2024-01-04T09:54:19.219Z,9.01
2024-01-04T09:56:57.322Z,8.96
2024-01-04T09:59:27.641Z,8.98
2024-01-04T10:04:43.116Z,8.99
2024-01-04T10:07:27.823Z,9.00
2024-01-04T10:10:25.926Z,9.10
2024-01-04T10:13:01.641Z,9.09
2024-01-04T10:15:33.258Z,9.06
2024-01-04T10:18:04.386Z,9.07
2024-01-04T10:20:36.367Z,9.02
2024-01-04T10:23:11.258Z,9.12
2024-01-04T10:25:40.908Z,9.06
2024-01-04T10:28:14.906Z,9.09
2024-01-04T10:30:56.629Z,8.97
2024-01-04T10:33:26.290Z,8.88
2024-01-04T10:35:55.997Z,8.86
2024-01-04T10:38:27.269Z,8.89
2024-01-04T10:41:07.233Z,8.88
2024-01-04T10:43:38.754Z,8.98
2024-01-04T10:46:15.290Z,8.82
2024-01-04T10:48:49.003Z,8.84
2024-01-04T10:51:21.118Z,8.77
2024-01-04T10:53:57.526Z,8.79
2024-01-04T10:56:32.491Z,8.90
2024-01-04T10:59:07.067Z,8.98
2024-01-04T11:01:38.503Z,9.03
2024-01-04T11:04:10.177Z,9.14
2024-01-04T11:06:44.425Z,9.27
2024-01-04T11:09:15.466Z,9.26
2024-01-04T11:11:47.751Z,9.32
2024-01-04T11:14:17.443Z,9.18
2024-01-04T11:17:40.945Z,9.17
2024-01-04T11:21:57.686Z,9.15
2024-01-04T11:24:46.304Z,9.15
2024-01-04T11:27:25.569Z,9.22
2024-01-04T11:29:57.347Z,9.29
2024-01-04T11:32:36.015Z,9.35
2024-01-04T11:35:07.573Z,9.34
2024-01-04T11:37:38.528Z,9.42
2024-01-04T11:40:12.650Z,9.50
2024-01-04T11:42:45.732Z,9.63
2024-01-04T11:45:21.513Z,9.79
2024-01-04T11:47:57.105Z,9.78
2024-01-04T11:50:31.915Z,9.76
2024-01-04T11:53:12.139Z,9.74
2024-01-04T11:55:44.501Z,9.74
2024-01-04T11:58:31.734Z,9.88
2024-01-04T12:01:05.907Z,9.73
2024-01-04T12:03:35.676Z,9.75
2024-01-04T12:06:10.940Z,9.83
2024-01-04T12:08:42.018Z,9.95
2024-01-04T12:11:13.250Z,9.99
2024-01-04T12:13:43.717Z,10.09
2024-01-04T12:16:13.443Z,10.26
2024-01-04T12:18:43.205Z,10.38
2024-01-04T12:21:18.779Z,10.55
2024-01-04T12:23:53.951Z,10.53
2024-01-04T12:26:30.331Z,10.39
2024-01-04T12:29:03.667Z,10.26
2024-01-04T12:31:37.589Z,10.17
2024-01-04T12:34:14.117Z,10.03
2024-01-04T12:36:45.078Z,10.00
2024-01-04T12:41:52.336Z,9.78
2024-01-04T12:44:26.085Z,9.76
2024-01-04T12:47:07.828Z,9.73
2024-01-04T12:49:43.252Z,9.73
2024-01-04T12:52:15.995Z,9.90
2024-01-04T12:54:45.899Z,9.76
2024-01-04T12:57:15.898Z,9.74
2024-01-04T12:59:50.774Z,9.75
2024-01-04T13:02:20.904Z,9.79
2024-01-04T13:04:50.474Z,9.76
2024-01-04T13:07:22.486Z,9.79
2024-01-04T13:09:52.141Z,9.84
2024-01-04T13:12:24.894Z,9.72
2024-01-04T13:14:56.623Z,9.72
2024-01-04T13:17:33.693Z,9.88
2024-01-04T13:20:10.367Z,9.89
2024-01-04T13:22:39.979Z,9.80
2024-01-04T13:25:12.819Z,9.85
2024-01-04T13:27:42.843Z,9.77
2024-01-04T13:30:18.724Z,9.68
2024-01-04T13:32:49.289Z,9.68
2024-01-04T13:35:19.709Z,9.77
2024-01-04T13:37:50.312Z,9.80
2024-01-04T13:40:19.971Z,9.91
2024-01-04T13:42:50.878Z,9.99
2024-01-04T13:45:23.500Z,10.04
2024-01-04T13:50:32.338Z,9.95
2024-01-04T13:53:11.735Z,10.02
2024-01-04T13:55:41.917Z,10.05
2024-01-04T13:58:11.546Z,10.00
2024-01-04T14:00:51.648Z,10.05
2024-01-04T14:03:28.813Z,10.10
2024-01-04T14:05:58.706Z,10.10
2024-01-04T14:08:29.863Z,9.99
2024-01-04T14:11:01.563Z,9.94
2024-01-04T14:16:06.335Z,9.87
2024-01-04T14:18:36.459Z,9.82
2024-01-04T14:21:09.049Z,9.76
2024-01-04T14:26:24.716Z,9.85
2024-01-04T14:28:54.603Z,9.67
2024-01-04T14:31:25.189Z,9.61
2024-01-04T14:33:55.292Z,9.55
2024-01-04T14:36:25.343Z,9.65
2024-01-04T14:38:55.490Z,9.64
2024-01-04T14:41:25.669Z,9.64
2024-01-04T14:43:55.572Z,9.58
2024-01-04T14:46:27.812Z,9.50
2024-01-04T14:48:58.465Z,9.54
2024-01-04T14:51:34.155Z,9.47
2024-01-04T14:54:12.469Z,9.39
2024-01-04T14:56:45.633Z,9.44
2024-01-04T14:59:26.489Z,9.39
2024-01-04T15:02:00.006Z,9.39
2024-01-04T15:04:30.700Z,9.39
2024-01-04T15:07:08.215Z,9.34
2024-01-04T15:09:39.256Z,9.24
2024-01-04T15:12:09.008Z,9.14
2024-01-04T15:14:40.572Z,9.10
2024-01-04T15:17:10.563Z,9.07
2024-01-04T15:19:40.264Z,9.00
2024-01-04T15:22:11.033Z,8.98
2024-01-04T15:24:51.545Z,8.97
2024-01-04T15:27:28.449Z,9.05
2024-01-04T15:29:58.989Z,9.05
2024-01-04T15:32:29.328Z,9.11
2024-01-04T15:34:59.282Z,9.09
2024-01-04T15:37:34.798Z,9.08
2024-01-04T15:40:09.203Z,9.03
2024-01-04T15:42:39.132Z,9.07
2024-01-04T15:45:11.313Z,9.11
2024-01-04T15:47:40.953Z,9.16
2024-01-04T15:50:11.637Z,9.21
2024-01-04T15:52:44.505Z,9.16
2024-01-04T15:55:14.524Z,9.17
2024-01-04T15:57:44.087Z,9.13
2024-01-04T16:00:15.093Z,9.12
2024-01-04T16:02:44.731Z,9.08
2024-01-04T16:05:15.270Z,9.22
2024-01-04T16:07:45.349Z,9.18
2024-01-04T16:10:16.962Z,9.20
2024-01-04T16:12:49.904Z,9.24
2024-01-04T16:15:23.448Z,9.27
2024-01-04T16:17:53.581Z,9.27
2024-01-04T16:20:30.828Z,9.30
2024-01-04T16:23:08.375Z,9.24
2024-01-04T16:25:38.257Z,9.24
2024-01-04T16:28:08.498Z,9.18
2024-01-04T16:30:38.237Z,9.12
2024-01-04T16:33:09.991Z,9.08
2024-01-04T16:35:45.109Z,9.16
2024-01-04T16:38:15.145Z,9.08
2024-01-04T16:40:44.866Z,9.08
2024-01-04T16:43:14.983Z,9.07
2024-01-04T16:45:44.704Z,9.00
2024-01-04T16:48:17.153Z,8.92
2024-01-04T16:50:47.842Z,8.85
2024-01-04T16:53:17.818Z,8.66
2024-01-04T16:55:47.442Z,8.52
2024-01-04T16:58:20.754Z,8.32
2024-01-04T17:03:23.579Z,7.95
2024-01-04T17:05:55.307Z,7.86
2024-01-04T17:08:25.635Z,7.77
2024-01-04T17:10:55.860Z,7.61
2024-01-04T17:13:25.733Z,7.47
2024-01-04T17:15:55.203Z,7.45
2024-01-04T17:18:28.428Z,7.41
2024-01-04T17:20:59.528Z,7.31
2024-01-04T17:23:32.254Z,7.23
2024-01-04T17:26:03.817Z,7.27
2024-01-04T17:28:35.180Z,7.43
2024-01-04T17:31:06.214Z,7.41
2024-01-04T17:33:36.178Z,7.46
2024-01-04T17:36:22.443Z,7.56
2024-01-04T17:38:58.755Z,7.66
2024-01-04T17:41:28.281Z,7.77
2024-01-04T17:43:59.550Z,7.86
2024-01-04T17:49:02.714Z,7.76
2024-01-04T17:51:33.274Z,7.53
2024-01-04T17:54:03.766Z,7.30
2024-01-04T17:56:33.533Z,7.11
2024-01-04T17:59:03.242Z,7.04
2024-01-04T18:04:08.481Z,6.83
2024-01-04T18:06:38.171Z,6.78
2024-01-04T18:09:09.309Z,6.77
2024-01-04T18:11:39.900Z,6.73
2024-01-04T18:14:10.669Z,6.74
2024-01-04T18:16:41.045Z,6.73
2024-01-04T18:19:13.079Z,6.63
2024-01-04T18:21:45.173Z,6.58
2024-01-04T18:24:15.432Z,6.51
2024-01-04T18:26:45.012Z,6.40
2024-01-04T18:29:19.179Z,6.36
2024-01-04T18:31:50.149Z,6.36
2024-01-04T18:34:25.101Z,6.36
2024-01-04T18:36:57.296Z,6.36
2024-01-04T18:39:27.623Z,6.38
2024-01-04T18:41:57.330Z,6.32
2024-01-04T18:44:27.035Z,6.29
2024-01-04T18:46:56.608Z,6.27
2024-01-04T18:49:26.193Z,6.33
2024-01-04T18:51:58.897Z,6.30
2024-01-04T18:54:28.561Z,6.21
2024-01-04T18:56:58.902Z,6.10
2024-01-04T18:59:28.618Z,5.98
2024-01-04T19:01:58.325Z,5.94
2024-01-04T19:04:29.817Z,5.80
2024-01-04T19:06:59.622Z,5.73
2024-01-04T19:09:30.227Z,5.72
2024-01-04T19:11:59.750Z,5.90
2024-01-04T19:14:29.389Z,5.98
2024-01-04T19:17:00.246Z,6.03
2024-01-04T19:19:30.968Z,6.03
2024-01-04T19:22:01.192Z,6.03
2024-01-04T19:24:30.787Z,6.13
2024-01-04T19:27:00.383Z,6.08
2024-01-04T19:29:30.261Z,6.05
2024-01-04T19:32:01.835Z,5.96
2024-01-04T19:34:32.003Z,5.90
2024-01-04T19:37:02.661Z,5.94
2024-01-04T19:39:32.353Z,6.02
2024-01-04T19:42:02.058Z,6.09
2024-01-04T19:44:32.312Z,6.17
2024-01-04T19:47:04.012Z,6.20
2024-01-04T19:49:34.617Z,6.21
2024-01-04T19:52:06.061Z,6.27
2024-01-04T19:54:37.423Z,6.34
2024-01-04T19:57:07.386Z,6.30
2024-01-04T19:59:37.219Z,6.31
2024-01-04T20:02:07.273Z,6.32
2024-01-04T20:04:37.469Z,6.38
2024-01-04T20:09:51.206Z,6.35
2024-01-04T20:12:22.456Z,6.35
2024-01-04T20:14:52.916Z,6.36
2024-01-04T20:17:22.953Z,6.35
2024-01-04T20:19:53.694Z,6.32
2024-01-04T20:22:24.312Z,6.34
2024-01-04T20:24:57.364Z,6.36
2024-01-04T20:27:29.117Z,6.39
2024-01-04T20:29:58.689Z,6.47
2024-01-04T20:32:28.405Z,6.53
2024-01-04T20:34:59.881Z,6.56
2024-01-04T20:37:29.585Z,6.62
2024-01-04T20:40:01.375Z,6.66
2024-01-04T20:42:31.400Z,6.70
2024-01-04T20:45:01.891Z,6.73
2024-01-04T20:47:31.924Z,6.77
2024-01-04T20:50:01.794Z,6.82
2024-01-04T20:52:31.938Z,6.92
2024-01-04T20:55:01.414Z,7.01
2024-01-04T20:57:36.163Z,7.04
2024-01-04T21:00:10.118Z,7.17
2024-01-04T21:02:39.655Z,7.30
2024-01-04T21:05:22.053Z,7.30
2024-01-04T21:07:52.459Z,7.26
2024-01-04T21:10:22.145Z,7.30
2024-01-04T21:12:51.766Z,7.32
2024-01-04T21:15:21.985Z,7.30
2024-01-04T21:17:51.738Z,7.27
2024-01-04T21:20:22.029Z,7.23
2024-01-04T21:22:52.511Z,7.23
2024-01-04T21:25:22.248Z,7.29
2024-01-04T21:27:52.456Z,7.36
2024-01-04T21:30:23.064Z,7.35
2024-01-04T21:32:52.859Z,7.31
2024-01-04T21:35:22.496Z,7.32
2024-01-04T21:37:52.144Z,7.37
2024-01-04T21:40:23.048Z,7.40
2024-01-04T21:42:52.711Z,7.46
2024-01-04T21:45:24.338Z,7.48
2024-01-04T21:47:56.232Z,7.62
2024-01-04T21:50:25.835Z,7.73
2024-01-04T21:52:56.157Z,7.78
2024-01-04T21:55:25.577Z,7.82
2024-01-04T21:57:55.484Z,8.07
2024-01-04T22:00:25.410Z,8.26
2024-01-04T22:02:55.531Z,8.22
2024-01-04T22:05:25.055Z,8.06
2024-01-04T22:07:57.607Z,8.18
2024-01-04T22:10:28.687Z,8.10
2024-01-04T22:12:58.688Z,8.12
2024-01-04T22:15:28.297Z,8.11
2024-01-04T22:17:57.979Z,8.11
2024-01-04T22:20:27.663Z,7.99
2024-01-04T22:22:57.419Z,8.03
2024-01-04T22:25:26.780Z,8.15
2024-01-04T22:27:56.231Z,8.24
2024-01-04T22:30:25.874Z,8.26
2024-01-04T22:35:28.699Z,8.15
2024-01-04T22:37:58.318Z,8.25
2024-01-04T22:40:27.829Z,8.27
2024-01-04T22:42:58.144Z,8.36
2024-01-04T22:45:31.306Z,8.31
2024-01-04T22:48:02.930Z,8.40
2024-01-04T22:50:32.689Z,8.34
2024-01-04T22:53:02.375Z,8.33
2024-01-04T22:55:33.155Z,8.32
2024-01-04T22:58:04.260Z,8.26
2024-01-04T23:00:36.552Z,8.30
2024-01-04T23:03:06.456Z,8.23
2024-01-04T23:05:36.208Z,8.23
2024-01-04T23:08:07.663Z,8.33
2024-01-04T23:10:37.564Z,8.47
2024-01-04T23:13:07.468Z,8.42
2024-01-04T23:18:10.874Z,8.29
2024-01-04T23:20:40.643Z,8.30
2024-01-04T23:23:10.193Z,8.29
2024-01-04T23:25:39.890Z,8.32
2024-01-04T23:28:09.515Z,8.34
2024-01-04T23:30:39.001Z,8.44
2024-01-04T23:33:08.723Z,8.36
2024-01-04T23:35:40.668Z,8.37
2024-01-04T23:38:11.957Z,8.40
2024-01-04T23:43:16.606Z,8.52
2024-01-04T23:45:46.295Z,8.52
2024-01-04T23:48:19.614Z,8.39
2024-01-04T23:50:51.706Z,8.29
2024-01-04T23:53:21.440Z,8.28
2024-01-04T23:55:51.209Z,8.35
2024-01-04T23:58:21.023Z,8.32
